sensor_id;sensor_type;location;lat;lon;timestamp;temperature;humidity
76203;DHT22;64985;46.364;17.008;2023-04-03T00:01:36;5.10;93.40
76203;DHT22;64985;46.364;17.008;2023-04-03T00:04:41;5.10;93.50
76203;DHT22;64985;46.364;17.008;2023-04-03T00:07:44;5.00;94.10
76203;DHT22;64985;46.364;17.008;2023-04-03T00:10:47;5.00;93.10
76203;DHT22;64985;46.364;17.008;2023-04-03T00:13:51;5.00;93.10
76203;DHT22;64985;46.364;17.008;2023-04-03T00:16:54;4.90;93.80
76203;DHT22;64985;46.364;17.008;2023-04-03T00:19:58;4.90;93.50
76203;DHT22;64985;46.364;17.008;2023-04-03T00:23:02;4.80;94.10
76203;DHT22;64985;46.364;17.008;2023-04-03T00:26:05;4.80;93.90
76203;DHT22;64985;46.364;17.008;2023-04-03T00:29:08;4.80;93.50
76203;DHT22;64985;46.364;17.008;2023-04-03T00:32:11;4.70;93.70
76203;DHT22;64985;46.364;17.008;2023-04-03T00:35:15;4.70;95.20
76203;DHT22;64985;46.364;17.008;2023-04-03T00:38:21;4.60;95.30
76203;DHT22;64985;46.364;17.008;2023-04-03T00:41:24;4.50;95.80
76203;DHT22;64985;46.364;17.008;2023-04-03T00:47:31;4.40;96.10
76203;DHT22;64985;46.364;17.008;2023-04-03T00:50:37;4.40;96.50
76203;DHT22;64985;46.364;17.008;2023-04-03T00:53:51;4.40;96.40
76203;DHT22;64985;46.364;17.008;2023-04-03T00:56:56;4.40;97.00
76203;DHT22;64985;46.364;17.008;2023-04-03T01:00:11;4.40;96.30
76203;DHT22;64985;46.364;17.008;2023-04-03T01:03:15;4.40;96.90
76203;DHT22;64985;46.364;17.008;2023-04-03T01:06:23;4.50;96.40
76203;DHT22;64985;46.364;17.008;2023-04-03T01:09:28;4.60;96.80
76203;DHT22;64985;46.364;17.008;2023-04-03T01:12:39;4.70;97.10
76203;DHT22;64985;46.364;17.008;2023-04-03T01:15:48;4.80;96.00
76203;DHT22;64985;46.364;17.008;2023-04-03T01:18:52;4.90;95.60
76203;DHT22;64985;46.364;17.008;2023-04-03T01:22:18;4.90;95.30
76203;DHT22;64985;46.364;17.008;2023-04-03T01:25:23;4.90;95.70
76203;DHT22;64985;46.364;17.008;2023-04-03T01:28:29;5.00;95.00
76203;DHT22;64985;46.364;17.008;2023-04-03T01:34:56;5.10;95.10
76203;DHT22;64985;46.364;17.008;2023-04-03T01:37:59;5.10;95.10
76203;DHT22;64985;46.364;17.008;2023-04-03T01:41:02;5.10;95.20
76203;DHT22;64985;46.364;17.008;2023-04-03T01:44:06;5.10;94.30
76203;DHT22;64985;46.364;17.008;2023-04-03T01:47:09;5.10;94.80
76203;DHT22;64985;46.364;17.008;2023-04-03T01:50:12;5.20;94.80
76203;DHT22;64985;46.364;17.008;2023-04-03T01:53:15;5.20;93.80
76203;DHT22;64985;46.364;17.008;2023-04-03T01:56:18;5.30;94.60
76203;DHT22;64985;46.364;17.008;2023-04-03T01:59:23;5.20;94.00
76203;DHT22;64985;46.364;17.008;2023-04-03T02:02:26;5.20;95.50
76203;DHT22;64985;46.364;17.008;2023-04-03T02:05:29;5.20;95.80
76203;DHT22;64985;46.364;17.008;2023-04-03T02:08:33;5.20;95.30
76203;DHT22;64985;46.364;17.008;2023-04-03T02:11:36;5.20;95.50
76203;DHT22;64985;46.364;17.008;2023-04-03T02:14:39;5.20;95.30
76203;DHT22;64985;46.364;17.008;2023-04-03T02:17:43;5.10;95.60
76203;DHT22;64985;46.364;17.008;2023-04-03T02:20:47;5.10;95.50
76203;DHT22;64985;46.364;17.008;2023-04-03T02:23:50;5.10;95.10
76203;DHT22;64985;46.364;17.008;2023-04-03T02:26:53;5.20;96.00
76203;DHT22;64985;46.364;17.008;2023-04-03T02:29:56;5.20;95.60
76203;DHT22;64985;46.364;17.008;2023-04-03T02:33:00;5.10;95.60
76203;DHT22;64985;46.364;17.008;2023-04-03T02:36:07;5.10;96.40
76203;DHT22;64985;46.364;17.008;2023-04-03T02:39:10;5.10;96.00
76203;DHT22;64985;46.364;17.008;2023-04-03T02:42:14;5.20;95.20
76203;DHT22;64985;46.364;17.008;2023-04-03T02:45:17;5.10;96.00
76203;DHT22;64985;46.364;17.008;2023-04-03T02:48:20;5.10;96.40
76203;DHT22;64985;46.364;17.008;2023-04-03T02:51:23;5.00;96.30
76203;DHT22;64985;46.364;17.008;2023-04-03T02:54:26;5.00;96.10
76203;DHT22;64985;46.364;17.008;2023-04-03T02:57:33;5.00;95.80
76203;DHT22;64985;46.364;17.008;2023-04-03T03:00:36;5.00;96.40
76203;DHT22;64985;46.364;17.008;2023-04-03T03:03:40;5.00;95.50
76203;DHT22;64985;46.364;17.008;2023-04-03T03:06:43;5.00;95.50
76203;DHT22;64985;46.364;17.008;2023-04-03T03:09:46;4.90;96.00
76203;DHT22;64985;46.364;17.008;2023-04-03T03:12:50;4.90;95.10
76203;DHT22;64985;46.364;17.008;2023-04-03T03:15:53;4.90;96.00
76203;DHT22;64985;46.364;17.008;2023-04-03T03:18:56;4.90;96.30
76203;DHT22;64985;46.364;17.008;2023-04-03T03:22:00;4.90;96.00
76203;DHT22;64985;46.364;17.008;2023-04-03T03:25:03;4.90;96.10
76203;DHT22;64985;46.364;17.008;2023-04-03T03:28:07;4.90;96.00
76203;DHT22;64985;46.364;17.008;2023-04-03T03:31:10;4.90;95.90
76203;DHT22;64985;46.364;17.008;2023-04-03T03:34:15;4.90;96.80
76203;DHT22;64985;46.364;17.008;2023-04-03T03:37:18;4.90;96.10
76203;DHT22;64985;46.364;17.008;2023-04-03T03:40:22;4.90;95.80
76203;DHT22;64985;46.364;17.008;2023-04-03T03:43:25;4.90;95.70
76203;DHT22;64985;46.364;17.008;2023-04-03T03:46:28;4.90;94.70
76203;DHT22;64985;46.364;17.008;2023-04-03T03:49:31;4.90;95.20
76203;DHT22;64985;46.364;17.008;2023-04-03T03:52:35;5.00;96.00
76203;DHT22;64985;46.364;17.008;2023-04-03T03:55:38;5.00;95.70
76203;DHT22;64985;46.364;17.008;2023-04-03T03:58:41;5.00;96.40
76203;DHT22;64985;46.364;17.008;2023-04-03T04:01:44;4.90;96.30
76203;DHT22;64985;46.364;17.008;2023-04-03T04:04:48;4.80;96.10
76203;DHT22;64985;46.364;17.008;2023-04-03T04:07:51;4.80;96.10
76203;DHT22;64985;46.364;17.008;2023-04-03T04:10:55;4.70;96.00
76203;DHT22;64985;46.364;17.008;2023-04-03T04:13:58;4.60;96.70
76203;DHT22;64985;46.364;17.008;2023-04-03T04:17:01;4.50;96.80
76203;DHT22;64985;46.364;17.008;2023-04-03T04:20:05;4.40;97.40
76203;DHT22;64985;46.364;17.008;2023-04-03T04:23:08;4.30;97.70
76203;DHT22;64985;46.364;17.008;2023-04-03T04:26:11;4.30;97.80
76203;DHT22;64985;46.364;17.008;2023-04-03T04:29:14;4.20;98.50
76203;DHT22;64985;46.364;17.008;2023-04-03T04:32:18;4.10;98.40
76203;DHT22;64985;46.364;17.008;2023-04-03T04:35:21;4.00;98.30
76203;DHT22;64985;46.364;17.008;2023-04-03T04:38:24;4.00;98.50
76203;DHT22;64985;46.364;17.008;2023-04-03T04:41:27;3.90;98.80
76203;DHT22;64985;46.364;17.008;2023-04-03T04:44:30;3.90;99.60
76203;DHT22;64985;46.364;17.008;2023-04-03T04:47:34;3.80;99.30
76203;DHT22;64985;46.364;17.008;2023-04-03T04:50:37;3.80;99.80
76203;DHT22;64985;46.364;17.008;2023-04-03T04:53:39;3.70;99.50
76203;DHT22;64985;46.364;17.008;2023-04-03T04:56:43;3.70;99.40
76203;DHT22;64985;46.364;17.008;2023-04-03T04:59:46;3.70;98.90
76203;DHT22;64985;46.364;17.008;2023-04-03T05:02:49;3.80;98.90
76203;DHT22;64985;46.364;17.008;2023-04-03T05:05:53;3.80;98.40
76203;DHT22;64985;46.364;17.008;2023-04-03T05:08:56;3.90;98.60
76203;DHT22;64985;46.364;17.008;2023-04-03T05:11:59;3.90;97.70
76203;DHT22;64985;46.364;17.008;2023-04-03T05:15:02;3.90;97.20
76203;DHT22;64985;46.364;17.008;2023-04-03T05:18:06;4.00;97.30
76203;DHT22;64985;46.364;17.008;2023-04-03T05:21:09;4.00;95.90
76203;DHT22;64985;46.364;17.008;2023-04-03T05:24:12;4.10;95.70
76203;DHT22;64985;46.364;17.008;2023-04-03T05:27:16;4.20;95.70
76203;DHT22;64985;46.364;17.008;2023-04-03T05:30:19;4.30;96.20
76203;DHT22;64985;46.364;17.008;2023-04-03T05:33:23;4.40;96.30
76203;DHT22;64985;46.364;17.008;2023-04-03T05:36:26;4.40;95.70
76203;DHT22;64985;46.364;17.008;2023-04-03T05:39:30;4.50;95.50
76203;DHT22;64985;46.364;17.008;2023-04-03T05:42:34;4.50;95.20
76203;DHT22;64985;46.364;17.008;2023-04-03T05:45:37;4.50;95.40
76203;DHT22;64985;46.364;17.008;2023-04-03T05:48:41;4.60;95.20
76203;DHT22;64985;46.364;17.008;2023-04-03T05:51:44;4.60;95.60
76203;DHT22;64985;46.364;17.008;2023-04-03T05:54:48;4.70;95.30
76203;DHT22;64985;46.364;17.008;2023-04-03T05:57:51;4.80;95.20
76203;DHT22;64985;46.364;17.008;2023-04-03T06:00:54;4.80;94.40
76203;DHT22;64985;46.364;17.008;2023-04-03T06:03:58;4.90;94.60
76203;DHT22;64985;46.364;17.008;2023-04-03T06:07:02;4.90;94.80
76203;DHT22;64985;46.364;17.008;2023-04-03T06:10:06;5.00;94.40
76203;DHT22;64985;46.364;17.008;2023-04-03T06:13:10;5.30;93.10
76203;DHT22;64985;46.364;17.008;2023-04-03T06:16:13;5.40;92.70
76203;DHT22;64985;46.364;17.008;2023-04-03T06:19:18;5.60;92.20
76203;DHT22;64985;46.364;17.008;2023-04-03T06:22:21;6.00;90.10
76203;DHT22;64985;46.364;17.008;2023-04-03T06:25:24;6.20;90.70
76203;DHT22;64985;46.364;17.008;2023-04-03T06:28:27;6.40;84.60
76203;DHT22;64985;46.364;17.008;2023-04-03T06:31:30;6.80;86.40
76203;DHT22;64985;46.364;17.008;2023-04-03T06:34:34;7.00;82.80
76203;DHT22;64985;46.364;17.008;2023-04-03T06:37:38;7.30;77.00
76203;DHT22;64985;46.364;17.008;2023-04-03T06:40:41;7.60;69.60
76203;DHT22;64985;46.364;17.008;2023-04-03T06:43:44;8.00;71.30
76203;DHT22;64985;46.364;17.008;2023-04-03T06:46:48;8.20;61.70
76203;DHT22;64985;46.364;17.008;2023-04-03T06:49:51;8.30;63.20
76203;DHT22;64985;46.364;17.008;2023-04-03T06:52:56;8.70;63.60
76203;DHT22;64985;46.364;17.008;2023-04-03T06:55:59;8.80;56.60
76203;DHT22;64985;46.364;17.008;2023-04-03T06:59:03;8.80;57.70
76203;DHT22;64985;46.364;17.008;2023-04-03T07:02:06;9.10;53.40
76203;DHT22;64985;46.364;17.008;2023-04-03T07:05:09;8.90;52.60
76203;DHT22;64985;46.364;17.008;2023-04-03T07:08:12;9.10;50.90
76203;DHT22;64985;46.364;17.008;2023-04-03T07:11:16;9.50;51.50
76203;DHT22;64985;46.364;17.008;2023-04-03T07:14:19;9.80;49.00
76203;DHT22;64985;46.364;17.008;2023-04-03T07:17:23;9.90;50.20
76203;DHT22;64985;46.364;17.008;2023-04-03T07:20:28;9.70;49.60
76203;DHT22;64985;46.364;17.008;2023-04-03T07:23:31;10.20;46.30
76203;DHT22;64985;46.364;17.008;2023-04-03T07:26:34;10.30;47.00
76203;DHT22;64985;46.364;17.008;2023-04-03T07:29:37;11.20;45.60
76203;DHT22;64985;46.364;17.008;2023-04-03T07:32:41;11.50;42.80
76203;DHT22;64985;46.364;17.008;2023-04-03T07:35:45;11.50;41.00
76203;DHT22;64985;46.364;17.008;2023-04-03T07:38:48;11.60;40.30
76203;DHT22;64985;46.364;17.008;2023-04-03T07:41:52;11.50;43.00
76203;DHT22;64985;46.364;17.008;2023-04-03T07:44:55;11.90;40.90
76203;DHT22;64985;46.364;17.008;2023-04-03T07:47:59;10.90;43.70
76203;DHT22;64985;46.364;17.008;2023-04-03T07:51:04;10.30;45.30
76203;DHT22;64985;46.364;17.008;2023-04-03T07:54:07;9.70;47.50
76203;DHT22;64985;46.364;17.008;2023-04-03T07:57:10;9.10;47.60
76203;DHT22;64985;46.364;17.008;2023-04-03T08:00:15;8.50;49.80
76203;DHT22;64985;46.364;17.008;2023-04-03T08:03:20;8.10;50.20
76203;DHT22;64985;46.364;17.008;2023-04-03T08:06:24;7.80;55.40
76203;DHT22;64985;46.364;17.008;2023-04-03T08:09:43;7.80;52.20
76203;DHT22;64985;46.364;17.008;2023-04-03T08:12:48;7.70;55.00
76203;DHT22;64985;46.364;17.008;2023-04-03T08:15:51;7.80;54.80
76203;DHT22;64985;46.364;17.008;2023-04-03T08:18:55;7.80;58.80
76203;DHT22;64985;46.364;17.008;2023-04-03T08:21:58;7.60;58.00
76203;DHT22;64985;46.364;17.008;2023-04-03T08:25:03;7.50;60.20
76203;DHT22;64985;46.364;17.008;2023-04-03T08:28:07;7.30;57.50
76203;DHT22;64985;46.364;17.008;2023-04-03T08:31:14;7.40;66.60
76203;DHT22;64985;46.364;17.008;2023-04-03T08:34:19;7.50;68.50
76203;DHT22;64985;46.364;17.008;2023-04-03T08:37:22;7.80;59.20
76203;DHT22;64985;46.364;17.008;2023-04-03T08:40:25;7.80;60.60
76203;DHT22;64985;46.364;17.008;2023-04-03T08:43:36;7.80;62.30
76203;DHT22;64985;46.364;17.008;2023-04-03T08:50:19;7.50;65.60
76203;DHT22;64985;46.364;17.008;2023-04-03T08:53:30;7.40;64.90
76203;DHT22;64985;46.364;17.008;2023-04-03T08:56:35;7.40;66.10
76203;DHT22;64985;46.364;17.008;2023-04-03T08:59:39;7.30;67.10
76203;DHT22;64985;46.364;17.008;2023-04-03T09:02:48;7.10;62.50
76203;DHT22;64985;46.364;17.008;2023-04-03T09:06:07;7.00;67.20
76203;DHT22;64985;46.364;17.008;2023-04-03T09:12:23;7.20;65.70
76203;DHT22;64985;46.364;17.008;2023-04-03T09:15:28;7.30;66.70
76203;DHT22;64985;46.364;17.008;2023-04-03T09:18:45;7.30;62.40
76203;DHT22;64985;46.364;17.008;2023-04-03T09:21:52;7.50;61.40
76203;DHT22;64985;46.364;17.008;2023-04-03T09:28:21;7.50;59.30
76203;DHT22;64985;46.364;17.008;2023-04-03T09:31:38;7.60;61.60
76203;DHT22;64985;46.364;17.008;2023-04-03T09:34:44;8.30;64.90
76203;DHT22;64985;46.364;17.008;2023-04-03T09:38:34;9.20;51.70
76203;DHT22;64985;46.364;17.008;2023-04-03T09:41:17;9.20;49.70
76203;DHT22;64985;46.364;17.008;2023-04-03T09:44:29;8.70;45.50
76203;DHT22;64985;46.364;17.008;2023-04-03T09:47:35;8.40;46.70
76203;DHT22;64985;46.364;17.008;2023-04-03T09:50:54;8.10;48.80
76203;DHT22;64985;46.364;17.008;2023-04-03T09:54:31;7.90;50.20
76203;DHT22;64985;46.364;17.008;2023-04-03T09:57:35;7.70;52.10
76203;DHT22;64985;46.364;17.008;2023-04-03T10:00:40;7.70;51.40
76203;DHT22;64985;46.364;17.008;2023-04-03T10:03:43;7.70;54.80
76203;DHT22;64985;46.364;17.008;2023-04-03T10:06:52;7.80;58.40
76203;DHT22;64985;46.364;17.008;2023-04-03T10:10:20;8.90;47.40
76203;DHT22;64985;46.364;17.008;2023-04-03T10:13:22;10.10;49.30
76203;DHT22;64985;46.364;17.008;2023-04-03T10:20:29;10.30;39.20
76203;DHT22;64985;46.364;17.008;2023-04-03T10:23:33;9.60;40.00
76203;DHT22;64985;46.364;17.008;2023-04-03T10:27:17;9.20;43.30
76203;DHT22;64985;46.364;17.008;2023-04-03T10:30:40;9.00;41.90
76203;DHT22;64985;46.364;17.008;2023-04-03T10:43:29;8.70;38.90
76203;DHT22;64985;46.364;17.008;2023-04-03T10:47:19;9.10;38.50
76203;DHT22;64985;46.364;17.008;2023-04-03T11:00:35;11.90;33.30
76203;DHT22;64985;46.364;17.008;2023-04-03T11:03:44;10.60;31.80
76203;DHT22;64985;46.364;17.008;2023-04-03T11:06:59;9.70;32.70
76203;DHT22;64985;46.364;17.008;2023-04-03T11:10:51;9.10;33.50
76203;DHT22;64985;46.364;17.008;2023-04-03T11:13:41;9.00;33.20
76203;DHT22;64985;46.364;17.008;2023-04-03T11:16:48;9.10;35.70
76203;DHT22;64985;46.364;17.008;2023-04-03T11:23:19;9.00;37.10
76203;DHT22;64985;46.364;17.008;2023-04-03T11:26:27;9.10;35.40
76203;DHT22;64985;46.364;17.008;2023-04-03T11:29:36;9.30;34.60
76203;DHT22;64985;46.364;17.008;2023-04-03T11:32:56;9.70;39.10
76203;DHT22;64985;46.364;17.008;2023-04-03T11:36:08;9.80;32.20
76203;DHT22;64985;46.364;17.008;2023-04-03T11:39:32;9.40;34.50
76203;DHT22;64985;46.364;17.008;2023-04-03T11:42:46;9.30;33.90
76203;DHT22;64985;46.364;17.008;2023-04-03T11:45:58;9.20;33.30
76203;DHT22;64985;46.364;17.008;2023-04-03T11:49:03;9.50;32.20
76203;DHT22;64985;46.364;17.008;2023-04-03T11:55:52;9.80;32.30
76203;DHT22;64985;46.364;17.008;2023-04-03T12:02:47;9.90;33.00
76203;DHT22;64985;46.364;17.008;2023-04-03T12:09:29;9.20;32.50
76203;DHT22;64985;46.364;17.008;2023-04-03T12:12:40;9.30;34.90
76203;DHT22;64985;46.364;17.008;2023-04-03T12:15:51;9.30;31.80
76203;DHT22;64985;46.364;17.008;2023-04-03T12:22:07;9.80;32.80
76203;DHT22;64985;46.364;17.008;2023-04-03T12:25:47;9.70;31.20
76203;DHT22;64985;46.364;17.008;2023-04-03T12:28:54;9.60;33.50
76203;DHT22;64985;46.364;17.008;2023-04-03T12:39:09;10.40;30.70
76203;DHT22;64985;46.364;17.008;2023-04-03T12:49:10;10.30;29.80
76203;DHT22;64985;46.364;17.008;2023-04-03T12:52:44;9.90;30.10
76203;DHT22;64985;46.364;17.008;2023-04-03T12:55:53;9.80;32.40
76203;DHT22;64985;46.364;17.008;2023-04-03T12:59:17;9.60;30.60
76203;DHT22;64985;46.364;17.008;2023-04-03T13:02:26;9.50;29.10
76203;DHT22;64985;46.364;17.008;2023-04-03T13:05:31;9.70;30.40
76203;DHT22;64985;46.364;17.008;2023-04-03T13:08:52;11.50;32.40
76203;DHT22;64985;46.364;17.008;2023-04-03T13:12:02;11.80;29.90
76203;DHT22;64985;46.364;17.008;2023-04-03T13:15:19;12.60;29.20
76203;DHT22;64985;46.364;17.008;2023-04-03T13:18:32;13.50;27.70
76203;DHT22;64985;46.364;17.008;2023-04-03T13:21:36;12.40;25.10
76203;DHT22;64985;46.364;17.008;2023-04-03T13:24:39;11.90;25.80
76203;DHT22;64985;46.364;17.008;2023-04-03T13:27:43;12.50;26.20
76203;DHT22;64985;46.364;17.008;2023-04-03T13:34:12;12.20;26.10
76203;DHT22;64985;46.364;17.008;2023-04-03T13:37:30;12.00;27.50
76203;DHT22;64985;46.364;17.008;2023-04-03T13:40:35;11.90;26.90
76203;DHT22;64985;46.364;17.008;2023-04-03T13:47:24;11.90;25.50
76203;DHT22;64985;46.364;17.008;2023-04-03T13:50:28;12.10;26.00
76203;DHT22;64985;46.364;17.008;2023-04-03T13:53:33;11.90;25.60
76203;DHT22;64985;46.364;17.008;2023-04-03T13:56:38;11.70;24.90
76203;DHT22;64985;46.364;17.008;2023-04-03T13:59:41;11.50;23.60
76203;DHT22;64985;46.364;17.008;2023-04-03T14:02:47;12.40;25.60
76203;DHT22;64985;46.364;17.008;2023-04-03T14:05:51;13.20;25.00
76203;DHT22;64985;46.364;17.008;2023-04-03T14:08:54;14.00;25.80
76203;DHT22;64985;46.364;17.008;2023-04-03T14:12:06;14.00;23.60
76203;DHT22;64985;46.364;17.008;2023-04-03T14:15:28;13.10;22.60
76203;DHT22;64985;46.364;17.008;2023-04-03T14:18:33;12.30;25.30
76203;DHT22;64985;46.364;17.008;2023-04-03T14:21:36;13.10;25.80
76203;DHT22;64985;46.364;17.008;2023-04-03T14:24:39;13.30;24.30
76203;DHT22;64985;46.364;17.008;2023-04-03T14:27:45;12.70;24.60
76203;DHT22;64985;46.364;17.008;2023-04-03T14:30:50;13.00;24.40
76203;DHT22;64985;46.364;17.008;2023-04-03T14:33:54;12.60;24.20
76203;DHT22;64985;46.364;17.008;2023-04-03T14:36:57;11.10;23.70
76203;DHT22;64985;46.364;17.008;2023-04-03T14:40:04;9.80;24.10
76203;DHT22;64985;46.364;17.008;2023-04-03T14:43:10;9.40;24.90
76203;DHT22;64985;46.364;17.008;2023-04-03T14:46:19;10.00;25.30
76203;DHT22;64985;46.364;17.008;2023-04-03T14:49:28;9.70;24.00
76203;DHT22;64985;46.364;17.008;2023-04-03T14:52:34;8.90;24.90
76203;DHT22;64985;46.364;17.008;2023-04-03T14:55:38;8.60;24.60
76203;DHT22;64985;46.364;17.008;2023-04-03T14:58:42;8.30;25.50
76203;DHT22;64985;46.364;17.008;2023-04-03T15:01:45;8.10;25.50
76203;DHT22;64985;46.364;17.008;2023-04-03T15:04:48;8.00;26.70
76203;DHT22;64985;46.364;17.008;2023-04-03T15:07:55;8.60;26.40
76203;DHT22;64985;46.364;17.008;2023-04-03T15:10:59;10.60;25.70
76203;DHT22;64985;46.364;17.008;2023-04-03T15:14:03;12.20;24.90
76203;DHT22;64985;46.364;17.008;2023-04-03T15:17:19;12.90;24.10
76203;DHT22;64985;46.364;17.008;2023-04-03T15:20:25;13.00;23.30
76203;DHT22;64985;46.364;17.008;2023-04-03T15:23:29;12.70;23.30
76203;DHT22;64985;46.364;17.008;2023-04-03T15:26:32;12.80;23.70
76203;DHT22;64985;46.364;17.008;2023-04-03T15:29:36;11.90;22.30
76203;DHT22;64985;46.364;17.008;2023-04-03T15:32:40;11.40;22.70
76203;DHT22;64985;46.364;17.008;2023-04-03T15:35:43;11.30;23.10
76203;DHT22;64985;46.364;17.008;2023-04-03T15:38:46;11.60;23.00
76203;DHT22;64985;46.364;17.008;2023-04-03T15:41:50;11.60;22.60
76203;DHT22;64985;46.364;17.008;2023-04-03T15:44:54;11.20;21.30
76203;DHT22;64985;46.364;17.008;2023-04-03T15:47:58;10.60;22.20
76203;DHT22;64985;46.364;17.008;2023-04-03T15:51:01;10.40;22.40
76203;DHT22;64985;46.364;17.008;2023-04-03T15:54:05;10.00;22.30
76203;DHT22;64985;46.364;17.008;2023-04-03T15:57:08;10.10;23.20
76203;DHT22;64985;46.364;17.008;2023-04-03T16:00:12;10.00;23.40
76203;DHT22;64985;46.364;17.008;2023-04-03T16:03:18;9.70;22.60
76203;DHT22;64985;46.364;17.008;2023-04-03T16:06:24;9.60;23.20
76203;DHT22;64985;46.364;17.008;2023-04-03T16:09:27;10.10;23.40
76203;DHT22;64985;46.364;17.008;2023-04-03T16:12:30;9.20;22.80
76203;DHT22;64985;46.364;17.008;2023-04-03T16:15:35;8.70;23.90
76203;DHT22;64985;46.364;17.008;2023-04-03T16:18:39;8.30;24.90
76203;DHT22;64985;46.364;17.008;2023-04-03T16:21:42;8.00;24.90
76203;DHT22;64985;46.364;17.008;2023-04-03T16:24:45;7.80;25.30
76203;DHT22;64985;46.364;17.008;2023-04-03T16:27:48;7.50;24.90
76203;DHT22;64985;46.364;17.008;2023-04-03T16:30:53;7.40;24.10
76203;DHT22;64985;46.364;17.008;2023-04-03T16:33:56;7.30;25.40
76203;DHT22;64985;46.364;17.008;2023-04-03T16:36:59;6.70;24.40
76203;DHT22;64985;46.364;17.008;2023-04-03T16:40:05;6.20;24.60
76203;DHT22;64985;46.364;17.008;2023-04-03T16:43:08;5.90;25.20
76203;DHT22;64985;46.364;17.008;2023-04-03T16:46:11;5.70;26.10
76203;DHT22;64985;46.364;17.008;2023-04-03T16:49:15;5.60;27.20
76203;DHT22;64985;46.364;17.008;2023-04-03T16:52:19;5.50;26.20
76203;DHT22;64985;46.364;17.008;2023-04-03T16:55:23;5.40;27.70
76203;DHT22;64985;46.364;17.008;2023-04-03T16:58:27;5.30;27.20
76203;DHT22;64985;46.364;17.008;2023-04-03T17:01:30;5.10;26.70
76203;DHT22;64985;46.364;17.008;2023-04-03T17:04:33;5.10;28.20
76203;DHT22;64985;46.364;17.008;2023-04-03T17:07:37;5.00;27.00
76203;DHT22;64985;46.364;17.008;2023-04-03T17:10:41;4.90;27.30
76203;DHT22;64985;46.364;17.008;2023-04-03T17:13:45;4.80;26.50
76203;DHT22;64985;46.364;17.008;2023-04-03T17:16:48;4.70;27.40
76203;DHT22;64985;46.364;17.008;2023-04-03T17:19:51;4.70;27.40
76203;DHT22;64985;46.364;17.008;2023-04-03T17:22:57;4.70;27.50
76203;DHT22;64985;46.364;17.008;2023-04-03T17:26:02;4.60;28.40
76203;DHT22;64985;46.364;17.008;2023-04-03T17:29:06;4.60;27.80
76203;DHT22;64985;46.364;17.008;2023-04-03T17:32:10;4.60;28.50
76203;DHT22;64985;46.364;17.008;2023-04-03T17:35:14;4.60;29.10
76203;DHT22;64985;46.364;17.008;2023-04-03T17:38:17;4.50;28.40
76203;DHT22;64985;46.364;17.008;2023-04-03T17:41:20;4.60;28.50
76203;DHT22;64985;46.364;17.008;2023-04-03T17:44:24;4.70;28.00
76203;DHT22;64985;46.364;17.008;2023-04-03T17:47:28;4.70;27.60
76203;DHT22;64985;46.364;17.008;2023-04-03T17:50:31;4.70;28.90
76203;DHT22;64985;46.364;17.008;2023-04-03T17:53:37;4.70;28.80
76203;DHT22;64985;46.364;17.008;2023-04-03T17:56:41;4.70;27.80
76203;DHT22;64985;46.364;17.008;2023-04-03T17:59:50;4.80;28.10
76203;DHT22;64985;46.364;17.008;2023-04-03T18:02:56;4.80;28.00
76203;DHT22;64985;46.364;17.008;2023-04-03T18:06:03;4.70;28.70
76203;DHT22;64985;46.364;17.008;2023-04-03T18:09:09;4.70;28.10
76203;DHT22;64985;46.364;17.008;2023-04-03T18:12:13;4.70;28.50
76203;DHT22;64985;46.364;17.008;2023-04-03T18:15:18;4.60;28.20
76203;DHT22;64985;46.364;17.008;2023-04-03T18:18:22;4.60;28.80
76203;DHT22;64985;46.364;17.008;2023-04-03T18:21:25;4.50;28.90
76203;DHT22;64985;46.364;17.008;2023-04-03T18:24:33;4.50;28.70
76203;DHT22;64985;46.364;17.008;2023-04-03T18:27:39;4.50;27.90
76203;DHT22;64985;46.364;17.008;2023-04-03T18:30:43;4.50;27.50
76203;DHT22;64985;46.364;17.008;2023-04-03T18:33:48;4.40;28.10
76203;DHT22;64985;46.364;17.008;2023-04-03T18:36:52;4.30;28.30
76203;DHT22;64985;46.364;17.008;2023-04-03T18:39:56;4.30;27.80
76203;DHT22;64985;46.364;17.008;2023-04-03T18:43:03;4.10;29.00
76203;DHT22;64985;46.364;17.008;2023-04-03T18:46:09;4.10;28.50
76203;DHT22;64985;46.364;17.008;2023-04-03T18:49:14;4.00;28.70
76203;DHT22;64985;46.364;17.008;2023-04-03T18:52:21;3.90;28.10
76203;DHT22;64985;46.364;17.008;2023-04-03T18:55:27;3.80;28.60
76203;DHT22;64985;46.364;17.008;2023-04-03T18:58:31;3.70;28.60
76203;DHT22;64985;46.364;17.008;2023-04-03T19:01:36;3.70;28.20
76203;DHT22;64985;46.364;17.008;2023-04-03T19:04:41;3.80;28.90
76203;DHT22;64985;46.364;17.008;2023-04-03T19:07:49;3.70;28.50
76203;DHT22;64985;46.364;17.008;2023-04-03T19:10:53;3.80;28.60
76203;DHT22;64985;46.364;17.008;2023-04-03T19:13:58;3.80;27.90
76203;DHT22;64985;46.364;17.008;2023-04-03T19:17:17;3.90;27.50
76203;DHT22;64985;46.364;17.008;2023-04-03T19:20:22;3.90;28.70
76203;DHT22;64985;46.364;17.008;2023-04-03T19:23:26;4.00;28.90
76203;DHT22;64985;46.364;17.008;2023-04-03T19:26:30;3.90;28.30
76203;DHT22;64985;46.364;17.008;2023-04-03T19:29:34;4.00;28.20
76203;DHT22;64985;46.364;17.008;2023-04-03T19:32:38;3.90;28.20
76203;DHT22;64985;46.364;17.008;2023-04-03T19:35:42;3.90;28.50
76203;DHT22;64985;46.364;17.008;2023-04-03T19:38:48;3.90;28.60
76203;DHT22;64985;46.364;17.008;2023-04-03T19:41:52;3.90;27.90
76203;DHT22;64985;46.364;17.008;2023-04-03T19:44:58;3.90;28.00
76203;DHT22;64985;46.364;17.008;2023-04-03T19:48:06;3.90;28.00
76203;DHT22;64985;46.364;17.008;2023-04-03T19:51:10;3.90;28.10
76203;DHT22;64985;46.364;17.008;2023-04-03T19:54:14;3.80;28.10
76203;DHT22;64985;46.364;17.008;2023-04-03T19:57:17;3.80;28.40
76203;DHT22;64985;46.364;17.008;2023-04-03T20:00:21;3.80;28.30
76203;DHT22;64985;46.364;17.008;2023-04-03T20:03:26;3.70;28.40
76203;DHT22;64985;46.364;17.008;2023-04-03T20:06:30;3.70;28.70
76203;DHT22;64985;46.364;17.008;2023-04-03T20:09:34;3.70;28.30
76203;DHT22;64985;46.364;17.008;2023-04-03T20:12:38;3.70;28.60
76203;DHT22;64985;46.364;17.008;2023-04-03T20:15:43;3.70;28.60
76203;DHT22;64985;46.364;17.008;2023-04-03T20:18:48;3.70;28.10
76203;DHT22;64985;46.364;17.008;2023-04-03T20:21:54;3.60;29.10
76203;DHT22;64985;46.364;17.008;2023-04-03T20:24:58;3.60;28.70
76203;DHT22;64985;46.364;17.008;2023-04-03T20:28:09;3.60;28.70
76203;DHT22;64985;46.364;17.008;2023-04-03T20:31:13;3.60;28.20
76203;DHT22;64985;46.364;17.008;2023-04-03T20:34:17;3.60;28.30
76203;DHT22;64985;46.364;17.008;2023-04-03T20:37:20;3.60;28.70
76203;DHT22;64985;46.364;17.008;2023-04-03T20:40:25;3.50;28.00
76203;DHT22;64985;46.364;17.008;2023-04-03T20:43:29;3.60;28.30
76203;DHT22;64985;46.364;17.008;2023-04-03T20:46:33;3.50;29.30
76203;DHT22;64985;46.364;17.008;2023-04-03T20:49:54;3.50;28.70